대문
인공위성 심상 15 일 일기 예보기후바람 예보 사이클론 번개 공항FAQ 회보 프로젝트 소개
날씨 : 유럽 아프리카 북아메리카 남아메리카 아시아 오스트레일리아-오세아니아 다른 사람
언어 접촉

청도, 중국

위도: 36-04N, 경도: 120-20E, 해발고도: 77 m


METAR: ZSQD 190900Z VRB01MPS CAVOK 17/01 Q1017 NOSIG
short-TAF: 구식인 (61392 시간)
long-TAF: ZSQD 190317Z 1906/2006 18004MPS 5000 BR NSC TX22/2005Z TN12/21Z

시간: 18:02 (10:02 UTC)

날씨관측

보고는 전에 1 시간 그리고 1 분 제출되었다: 09:00 UTC  
바람 2 kt 변하기 쉬운 방향에서
온도 17°C
습도 34%
기압 1017 hPa
시정 10 km 이상
운고 및 시정 양호한 기상

단위계

날씨예보

보고는 전에 5 시간 그리고 59 분 제출되었다: 04:03 UTC  
예보기간[UTC] : 19일 06시 ~ 20일 06시
바람 8 kt  
시정 5000 m
박무
이 위치에 정보는 a를 조건으로 하여 이다 포기
날씨 : 유럽 아프리카 북아메리카 남아메리카 아시아 오스트레일리아-오세아니아 다른 사람
인공위성 심상 15 일 일기 예보기후바람 예보 사이클론 번개 공항FAQ 언어 접촉 회보 프로젝트 소개